TX22 weather

Public forecast

Using degrees Fahrenheit for public forecast. Weather courtesy of forecast.io.

Closest aviation weather report (METAR) to Leroux Airport

Closest report is Denton Municipal Airport, 6.3 nm (11.7 km) NNW. Retrieved 2020/08/14 13:53 UTC (1 hour ago):

KDTO 141353Z 22011KT 10SM CLR 31/19 A2990 RMK AO2 SLP112 T03060194

Closest aviation forecast (TAF) to Leroux Airport

Closest forecast is Fort Worth Alliance Airport, 10.7 nm (19.9 km) SW. Retrieved 2020/08/14 12:22 UTC (3 hours ago):

TAF KAFW 141120Z 1412/1512 18011KT P6SM FEW150 FM141500 22015KT P6SM FEW060 FEW250 FM150100 17010KT P6SM FEW250